sensor_id;sensor_type;location;lat;lon;timestamp;pressure;altitude;pressure_sealevel;temperature;humidity
81319;BME280;70784;48.420;14.830;2023-06-22T00:01:24;93107.63;;;17.49;68.07
81319;BME280;70784;48.420;14.830;2023-06-22T00:04:08;93102.19;;;17.33;68.08
81319;BME280;70784;48.420;14.830;2023-06-22T00:06:52;93102.06;;;17.30;69.08
81319;BME280;70784;48.420;14.830;2023-06-22T00:09:37;93099.81;;;17.20;69.02
81319;BME280;70784;48.420;14.830;2023-06-22T00:12:21;93096.78;;;17.38;67.52
81319;BME280;70784;48.420;14.830;2023-06-22T00:15:06;93094.06;;;16.97;69.69
81319;BME280;70784;48.420;14.830;2023-06-22T00:17:51;93087.66;;;17.15;68.01
81319;BME280;70784;48.420;14.830;2023-06-22T00:20:35;93088.16;;;17.79;65.44
81319;BME280;70784;48.420;14.830;2023-06-22T00:23:21;93090.75;;;18.00;64.61
81319;BME280;70784;48.420;14.830;2023-06-22T00:26:07;93090.84;;;17.71;65.41
81319;BME280;70784;48.420;14.830;2023-06-22T00:28:52;93092.50;;;17.55;65.77
81319;BME280;70784;48.420;14.830;2023-06-22T00:31:36;93079.47;;;17.58;64.90
81319;BME280;70784;48.420;14.830;2023-06-22T00:34:21;93082.28;;;17.32;65.33
81319;BME280;70784;48.420;14.830;2023-06-22T00:37:05;93082.84;;;16.88;68.44
81319;BME280;70784;48.420;14.830;2023-06-22T00:39:50;93074.63;;;16.51;69.32
81319;BME280;70784;48.420;14.830;2023-06-22T00:42:34;93059.22;;;17.17;67.19
81319;BME280;70784;48.420;14.830;2023-06-22T00:45:19;93060.13;;;17.21;66.22
81319;BME280;70784;48.420;14.830;2023-06-22T00:48:04;93055.34;;;17.44;64.98
81319;BME280;70784;48.420;14.830;2023-06-22T00:50:49;93054.13;;;17.41;65.00
81319;BME280;70784;48.420;14.830;2023-06-22T00:53:35;93048.41;;;17.19;66.81
81319;BME280;70784;48.420;14.830;2023-06-22T00:56:22;93049.38;;;17.14;66.15
81319;BME280;70784;48.420;14.830;2023-06-22T00:59:10;93052.00;;;17.14;66.42
81319;BME280;70784;48.420;14.830;2023-06-22T01:01:56;93048.75;;;17.59;64.00
81319;BME280;70784;48.420;14.830;2023-06-22T01:04:41;93044.13;;;17.97;62.47
81319;BME280;70784;48.420;14.830;2023-06-22T01:07:35;93043.28;;;17.85;63.02
81319;BME280;70784;48.420;14.830;2023-06-22T01:10:30;93044.28;;;17.80;63.09
81319;BME280;70784;48.420;14.830;2023-06-22T01:16:49;93037.84;;;17.27;65.86
81319;BME280;70784;48.420;14.830;2023-06-22T01:22:33;93033.69;;;18.22;61.33
81319;BME280;70784;48.420;14.830;2023-06-22T01:25:33;93027.81;;;18.04;62.01
81319;BME280;70784;48.420;14.830;2023-06-22T01:28:49;93025.56;;;18.27;61.95
81319;BME280;70784;48.420;14.830;2023-06-22T01:31:35;93032.84;;;17.97;62.20
81319;BME280;70784;48.420;14.830;2023-06-22T01:34:21;93034.66;;;17.84;63.42
81319;BME280;70784;48.420;14.830;2023-06-22T01:37:06;93030.13;;;18.05;62.17
81319;BME280;70784;48.420;14.830;2023-06-22T01:39:52;93024.47;;;18.28;62.11
81319;BME280;70784;48.420;14.830;2023-06-22T01:42:38;93029.97;;;18.35;61.43
81319;BME280;70784;48.420;14.830;2023-06-22T01:45:23;93023.63;;;18.36;61.02
81319;BME280;70784;48.420;14.830;2023-06-22T01:48:09;93023.41;;;18.41;61.35
81319;BME280;70784;48.420;14.830;2023-06-22T01:50:53;93026.88;;;18.20;62.58
81319;BME280;70784;48.420;14.830;2023-06-22T01:53:38;93024.38;;;18.36;61.68
81319;BME280;70784;48.420;14.830;2023-06-22T01:56:23;93026.91;;;18.33;61.31
81319;BME280;70784;48.420;14.830;2023-06-22T01:59:31;93027.31;;;18.23;62.04
81319;BME280;70784;48.420;14.830;2023-06-22T02:02:20;93028.59;;;18.04;62.14
81319;BME280;70784;48.420;14.830;2023-06-22T02:05:15;93026.97;;;18.12;61.43
81319;BME280;70784;48.420;14.830;2023-06-22T02:08:09;93018.69;;;18.22;61.97
81319;BME280;70784;48.420;14.830;2023-06-22T02:10:56;93027.69;;;18.00;62.29
81319;BME280;70784;48.420;14.830;2023-06-22T02:13:45;93034.47;;;17.89;63.15
81319;BME280;70784;48.420;14.830;2023-06-22T02:16:32;93033.38;;;17.90;64.13
81319;BME280;70784;48.420;14.830;2023-06-22T02:19:23;93040.22;;;17.82;64.92
81319;BME280;70784;48.420;14.830;2023-06-22T02:22:10;93032.47;;;17.86;64.65
81319;BME280;70784;48.420;14.830;2023-06-22T02:24:58;93021.94;;;18.07;63.41
81319;BME280;70784;48.420;14.830;2023-06-22T02:27:45;93013.84;;;17.79;64.16
81319;BME280;70784;48.420;14.830;2023-06-22T02:30:32;93005.25;;;18.03;64.17
81319;BME280;70784;48.420;14.830;2023-06-22T02:33:18;93020.03;;;17.95;64.54
81319;BME280;70784;48.420;14.830;2023-06-22T02:36:05;93026.06;;;17.96;64.48
81319;BME280;70784;48.420;14.830;2023-06-22T02:38:55;93028.88;;;18.24;63.22
81319;BME280;70784;48.420;14.830;2023-06-22T02:41:46;93026.66;;;17.80;65.87
81319;BME280;70784;48.420;14.830;2023-06-22T02:44:32;93027.75;;;17.79;66.16
81319;BME280;70784;48.420;14.830;2023-06-22T02:47:19;93020.88;;;17.87;64.87
81319;BME280;70784;48.420;14.830;2023-06-22T02:50:06;93015.47;;;18.16;64.02
81319;BME280;70784;48.420;14.830;2023-06-22T02:52:52;93004.34;;;17.87;65.93
81319;BME280;70784;48.420;14.830;2023-06-22T02:55:42;93008.88;;;17.98;65.09
81319;BME280;70784;48.420;14.830;2023-06-22T02:58:29;93001.63;;;17.95;64.60
81319;BME280;70784;48.420;14.830;2023-06-22T03:01:15;93000.22;;;17.98;65.44
81319;BME280;70784;48.420;14.830;2023-06-22T03:04:04;92986.88;;;17.91;65.25
81319;BME280;70784;48.420;14.830;2023-06-22T03:06:51;92982.56;;;17.86;65.75
81319;BME280;70784;48.420;14.830;2023-06-22T03:09:39;92979.34;;;18.13;64.66
81319;BME280;70784;48.420;14.830;2023-06-22T03:12:26;92982.47;;;17.95;65.77
81319;BME280;70784;48.420;14.830;2023-06-22T03:15:13;92988.78;;;18.14;65.14
81319;BME280;70784;48.420;14.830;2023-06-22T03:17:59;92991.44;;;17.94;66.17
81319;BME280;70784;48.420;14.830;2023-06-22T03:20:45;92992.44;;;18.01;64.65
81319;BME280;70784;48.420;14.830;2023-06-22T03:23:32;92979.25;;;17.77;66.54
81319;BME280;70784;48.420;14.830;2023-06-22T03:26:19;92985.56;;;17.97;65.40
81319;BME280;70784;48.420;14.830;2023-06-22T03:29:05;92996.34;;;17.83;66.64
81319;BME280;70784;48.420;14.830;2023-06-22T03:31:52;92991.56;;;17.97;65.40
81319;BME280;70784;48.420;14.830;2023-06-22T03:34:38;93005.50;;;18.10;64.90
81319;BME280;70784;48.420;14.830;2023-06-22T03:37:25;92998.31;;;17.86;66.94
81319;BME280;70784;48.420;14.830;2023-06-22T03:40:12;93003.72;;;18.02;66.13
81319;BME280;70784;48.420;14.830;2023-06-22T03:43:02;93007.59;;;18.16;66.30
81319;BME280;70784;48.420;14.830;2023-06-22T03:45:51;92996.53;;;18.11;66.79
81319;BME280;70784;48.420;14.830;2023-06-22T03:48:42;93000.19;;;18.31;66.67
81319;BME280;70784;48.420;14.830;2023-06-22T03:51:28;93005.78;;;18.53;66.93
81319;BME280;70784;48.420;14.830;2023-06-22T03:54:15;93004.94;;;18.62;66.57
81319;BME280;70784;48.420;14.830;2023-06-22T03:57:02;93008.09;;;18.67;66.56
81319;BME280;70784;48.420;14.830;2023-06-22T03:59:50;92997.78;;;18.50;68.50
81319;BME280;70784;48.420;14.830;2023-06-22T04:02:36;93003.94;;;18.90;65.98
81319;BME280;70784;48.420;14.830;2023-06-22T04:05:22;92998.69;;;18.78;67.55
81319;BME280;70784;48.420;14.830;2023-06-22T04:08:10;93004.25;;;19.01;68.35
81319;BME280;70784;48.420;14.830;2023-06-22T04:10:57;92987.28;;;18.99;68.25
81319;BME280;70784;48.420;14.830;2023-06-22T04:13:44;92980.13;;;19.11;67.85
81319;BME280;70784;48.420;14.830;2023-06-22T04:16:30;92995.31;;;19.30;69.98
81319;BME280;70784;48.420;14.830;2023-06-22T04:19:18;92988.72;;;19.36;69.92
81319;BME280;70784;48.420;14.830;2023-06-22T04:22:07;92996.16;;;19.46;69.44
81319;BME280;70784;48.420;14.830;2023-06-22T04:24:57;92997.78;;;19.51;68.34
81319;BME280;70784;48.420;14.830;2023-06-22T04:27:44;93007.09;;;19.60;70.00
81319;BME280;70784;48.420;14.830;2023-06-22T04:30:33;92994.41;;;19.50;70.27
81319;BME280;70784;48.420;14.830;2023-06-22T04:33:19;92998.28;;;19.68;70.77
81319;BME280;70784;48.420;14.830;2023-06-22T04:36:06;93004.63;;;19.80;69.43
81319;BME280;70784;48.420;14.830;2023-06-22T04:38:53;92991.09;;;19.81;69.59
81319;BME280;70784;48.420;14.830;2023-06-22T04:41:41;92983.09;;;19.78;70.09
81319;BME280;70784;48.420;14.830;2023-06-22T04:44:28;92978.56;;;20.06;68.28
81319;BME280;70784;48.420;14.830;2023-06-22T04:47:15;92980.72;;;20.16;67.70
81319;BME280;70784;48.420;14.830;2023-06-22T04:50:01;92987.69;;;20.24;67.91
81319;BME280;70784;48.420;14.830;2023-06-22T04:52:51;92974.44;;;20.36;67.31
81319;BME280;70784;48.420;14.830;2023-06-22T04:55:38;92975.69;;;20.27;68.08
81319;BME280;70784;48.420;14.830;2023-06-22T04:58:27;92963.47;;;20.50;66.57
81319;BME280;70784;48.420;14.830;2023-06-22T05:01:14;92962.00;;;20.53;66.80
81319;BME280;70784;48.420;14.830;2023-06-22T05:04:00;92956.84;;;20.56;66.87
81319;BME280;70784;48.420;14.830;2023-06-22T05:06:47;92958.63;;;20.36;68.65
81319;BME280;70784;48.420;14.830;2023-06-22T05:09:33;92949.28;;;20.39;67.04
81319;BME280;70784;48.420;14.830;2023-06-22T05:12:20;92950.66;;;20.68;65.63
81319;BME280;70784;48.420;14.830;2023-06-22T05:15:11;92951.00;;;20.82;66.07
81319;BME280;70784;48.420;14.830;2023-06-22T05:17:58;92946.25;;;20.72;65.76
81319;BME280;70784;48.420;14.830;2023-06-22T05:20:50;92949.31;;;21.25;64.44
81319;BME280;70784;48.420;14.830;2023-06-22T05:23:40;92957.97;;;21.09;65.90
81319;BME280;70784;48.420;14.830;2023-06-22T05:26:27;92950.97;;;21.33;63.51
81319;BME280;70784;48.420;14.830;2023-06-22T05:29:13;92950.13;;;21.29;62.97
81319;BME280;70784;48.420;14.830;2023-06-22T05:31:59;92951.94;;;21.44;60.98
81319;BME280;70784;48.420;14.830;2023-06-22T05:34:48;92950.88;;;21.68;61.28
81319;BME280;70784;48.420;14.830;2023-06-22T05:37:34;92938.81;;;21.89;61.75
81319;BME280;70784;48.420;14.830;2023-06-22T05:40:21;92938.41;;;21.87;59.38
81319;BME280;70784;48.420;14.830;2023-06-22T05:43:08;92938.53;;;21.94;58.71
81319;BME280;70784;48.420;14.830;2023-06-22T05:45:55;92933.78;;;22.26;57.61
81319;BME280;70784;48.420;14.830;2023-06-22T05:48:41;92937.97;;;22.27;56.65
81319;BME280;70784;48.420;14.830;2023-06-22T05:51:27;92928.19;;;22.54;54.29
81319;BME280;70784;48.420;14.830;2023-06-22T05:54:14;92930.56;;;22.59;56.42
81319;BME280;70784;48.420;14.830;2023-06-22T05:57:01;92923.69;;;22.81;55.22
81319;BME280;70784;48.420;14.830;2023-06-22T05:59:50;92930.97;;;22.88;55.65
81319;BME280;70784;48.420;14.830;2023-06-22T06:02:39;92931.75;;;22.88;56.57
81319;BME280;70784;48.420;14.830;2023-06-22T06:05:33;92927.41;;;23.03;55.80
81319;BME280;70784;48.420;14.830;2023-06-22T06:08:20;92926.09;;;23.20;56.20
81319;BME280;70784;48.420;14.830;2023-06-22T06:11:06;92925.69;;;23.48;55.15
81319;BME280;70784;48.420;14.830;2023-06-22T06:13:51;92932.25;;;23.27;54.70
81319;BME280;70784;48.420;14.830;2023-06-22T06:16:36;92924.78;;;23.36;54.90
81319;BME280;70784;48.420;14.830;2023-06-22T06:19:20;92933.88;;;23.69;54.04
81319;BME280;70784;48.420;14.830;2023-06-22T06:22:05;92930.19;;;23.77;51.29
81319;BME280;70784;48.420;14.830;2023-06-22T06:24:49;92932.72;;;24.00;50.82
81319;BME280;70784;48.420;14.830;2023-06-22T06:27:34;92936.25;;;24.14;50.81
81319;BME280;70784;48.420;14.830;2023-06-22T06:30:19;92929.81;;;23.75;53.07
81319;BME280;70784;48.420;14.830;2023-06-22T06:33:04;92937.72;;;24.08;52.70
81319;BME280;70784;48.420;14.830;2023-06-22T06:35:52;92933.25;;;24.19;50.74
81319;BME280;70784;48.420;14.830;2023-06-22T06:38:37;92933.13;;;24.02;50.61
81319;BME280;70784;48.420;14.830;2023-06-22T06:41:21;92935.88;;;24.16;50.58
81319;BME280;70784;48.420;14.830;2023-06-22T06:44:06;92936.28;;;24.58;51.69
81319;BME280;70784;48.420;14.830;2023-06-22T06:46:50;92935.19;;;24.67;51.60
81319;BME280;70784;48.420;14.830;2023-06-22T06:49:35;92937.78;;;24.19;51.36
81319;BME280;70784;48.420;14.830;2023-06-22T06:52:19;92940.78;;;24.54;52.34
81319;BME280;70784;48.420;14.830;2023-06-22T06:55:05;92945.63;;;24.42;51.89
81319;BME280;70784;48.420;14.830;2023-06-22T06:57:52;92947.19;;;24.98;52.13
81319;BME280;70784;48.420;14.830;2023-06-22T07:00:37;92944.81;;;24.89;53.22
81319;BME280;70784;48.420;14.830;2023-06-22T07:03:22;92941.09;;;24.46;51.73
81319;BME280;70784;48.420;14.830;2023-06-22T07:06:08;92939.84;;;24.80;52.35
81319;BME280;70784;48.420;14.830;2023-06-22T07:08:53;92944.97;;;24.55;52.73
81319;BME280;70784;48.420;14.830;2023-06-22T07:11:37;92940.63;;;24.33;53.06
81319;BME280;70784;48.420;14.830;2023-06-22T07:14:22;92936.63;;;24.57;53.96
81319;BME280;70784;48.420;14.830;2023-06-22T07:17:06;92938.84;;;25.03;54.76
81319;BME280;70784;48.420;14.830;2023-06-22T07:19:51;92935.81;;;25.04;53.38
81319;BME280;70784;48.420;14.830;2023-06-22T07:22:36;92933.84;;;25.59;52.18
81319;BME280;70784;48.420;14.830;2023-06-22T07:25:20;92927.56;;;25.20;54.94
81319;BME280;70784;48.420;14.830;2023-06-22T07:28:07;92926.72;;;25.05;54.28
81319;BME280;70784;48.420;14.830;2023-06-22T07:30:51;92921.50;;;25.23;52.68
81319;BME280;70784;48.420;14.830;2023-06-22T07:33:36;92917.22;;;25.01;53.16
81319;BME280;70784;48.420;14.830;2023-06-22T07:36:20;92915.66;;;24.92;54.04
81319;BME280;70784;48.420;14.830;2023-06-22T07:39:05;92918.31;;;24.92;53.09
81319;BME280;70784;48.420;14.830;2023-06-22T07:41:49;92916.59;;;25.25;52.89
81319;BME280;70784;48.420;14.830;2023-06-22T07:44:34;92917.34;;;25.29;53.84
81319;BME280;70784;48.420;14.830;2023-06-22T07:47:18;92919.75;;;25.55;51.73
81319;BME280;70784;48.420;14.830;2023-06-22T07:50:04;92921.31;;;25.63;53.45
81319;BME280;70784;48.420;14.830;2023-06-22T07:52:48;92916.09;;;26.06;50.66
81319;BME280;70784;48.420;14.830;2023-06-22T07:55:33;92916.81;;;25.82;50.92
81319;BME280;70784;48.420;14.830;2023-06-22T07:58:17;92919.88;;;25.84;51.77
81319;BME280;70784;48.420;14.830;2023-06-22T08:01:03;92919.81;;;25.73;50.97
81319;BME280;70784;48.420;14.830;2023-06-22T08:03:48;92913.66;;;25.51;49.41
81319;BME280;70784;48.420;14.830;2023-06-22T08:06:33;92909.91;;;25.59;51.01
81319;BME280;70784;48.420;14.830;2023-06-22T08:09:17;92909.88;;;25.52;50.87
81319;BME280;70784;48.420;14.830;2023-06-22T08:12:02;92916.09;;;25.99;51.13
81319;BME280;70784;48.420;14.830;2023-06-22T08:14:47;92921.38;;;25.85;50.26
81319;BME280;70784;48.420;14.830;2023-06-22T08:17:31;92925.19;;;25.84;50.60
81319;BME280;70784;48.420;14.830;2023-06-22T08:20:16;92930.50;;;25.91;51.03
81319;BME280;70784;48.420;14.830;2023-06-22T08:23:01;92931.69;;;26.15;48.32
81319;BME280;70784;48.420;14.830;2023-06-22T08:25:50;92925.28;;;26.33;50.97
81319;BME280;70784;48.420;14.830;2023-06-22T08:28:35;92914.25;;;26.45;49.47
81319;BME280;70784;48.420;14.830;2023-06-22T08:31:20;92923.72;;;26.22;48.84
81319;BME280;70784;48.420;14.830;2023-06-22T08:34:05;92916.94;;;26.53;49.66
81319;BME280;70784;48.420;14.830;2023-06-22T08:36:49;92921.06;;;26.82;50.22
81319;BME280;70784;48.420;14.830;2023-06-22T08:39:36;92922.97;;;26.71;48.02
81319;BME280;70784;48.420;14.830;2023-06-22T08:42:21;92915.75;;;26.82;51.61
81319;BME280;70784;48.420;14.830;2023-06-22T08:45:06;92924.53;;;26.65;49.54
81319;BME280;70784;48.420;14.830;2023-06-22T08:47:51;92922.97;;;27.10;49.26
81319;BME280;70784;48.420;14.830;2023-06-22T08:50:35;92928.34;;;26.92;50.57
81319;BME280;70784;48.420;14.830;2023-06-22T08:53:19;92920.72;;;26.48;50.47
81319;BME280;70784;48.420;14.830;2023-06-22T08:56:05;92915.38;;;26.62;48.73
81319;BME280;70784;48.420;14.830;2023-06-22T08:58:49;92916.50;;;27.00;49.51
81319;BME280;70784;48.420;14.830;2023-06-22T09:01:34;92911.09;;;27.36;47.13
81319;BME280;70784;48.420;14.830;2023-06-22T09:04:18;92912.22;;;27.31;46.45
81319;BME280;70784;48.420;14.830;2023-06-22T09:07:06;92905.06;;;27.10;46.41
81319;BME280;70784;48.420;14.830;2023-06-22T09:09:51;92917.22;;;27.26;45.90
81319;BME280;70784;48.420;14.830;2023-06-22T09:12:35;92923.63;;;27.39;46.91
81319;BME280;70784;48.420;14.830;2023-06-22T09:15:21;92918.38;;;27.17;44.23
81319;BME280;70784;48.420;14.830;2023-06-22T09:18:06;92911.03;;;27.50;43.48
81319;BME280;70784;48.420;14.830;2023-06-22T09:20:54;92915.31;;;27.23;42.83
81319;BME280;70784;48.420;14.830;2023-06-22T09:23:38;92912.81;;;27.81;42.94
81319;BME280;70784;48.420;14.830;2023-06-22T09:26:23;92907.50;;;27.74;43.37
81319;BME280;70784;48.420;14.830;2023-06-22T09:29:08;92906.69;;;27.84;40.75
81319;BME280;70784;48.420;14.830;2023-06-22T09:31:53;92912.75;;;27.92;42.79
81319;BME280;70784;48.420;14.830;2023-06-22T09:34:38;92915.09;;;27.79;41.76
81319;BME280;70784;48.420;14.830;2023-06-22T09:37:22;92914.69;;;28.50;44.51
81319;BME280;70784;48.420;14.830;2023-06-22T09:40:07;92924.84;;;28.11;42.32
81319;BME280;70784;48.420;14.830;2023-06-22T09:42:54;92916.69;;;28.36;43.15
81319;BME280;70784;48.420;14.830;2023-06-22T09:45:39;92908.44;;;28.16;41.48
81319;BME280;70784;48.420;14.830;2023-06-22T09:48:23;92908.84;;;28.04;45.34
81319;BME280;70784;48.420;14.830;2023-06-22T09:51:08;92916.66;;;28.39;43.03
81319;BME280;70784;48.420;14.830;2023-06-22T09:53:52;92918.59;;;28.87;41.67
81319;BME280;70784;48.420;14.830;2023-06-22T09:56:40;92919.81;;;28.79;42.19
81319;BME280;70784;48.420;14.830;2023-06-22T09:59:24;92913.19;;;28.94;43.86
81319;BME280;70784;48.420;14.830;2023-06-22T10:02:09;92906.56;;;29.05;42.23
81319;BME280;70784;48.420;14.830;2023-06-22T10:04:54;92899.31;;;28.61;43.56
81319;BME280;70784;48.420;14.830;2023-06-22T10:07:39;92897.38;;;28.65;42.27
81319;BME280;70784;48.420;14.830;2023-06-22T10:10:24;92905.03;;;29.04;42.39
81319;BME280;70784;48.420;14.830;2023-06-22T10:13:10;92904.63;;;28.10;41.77
81319;BME280;70784;48.420;14.830;2023-06-22T10:15:55;92903.78;;;28.79;42.44
81319;BME280;70784;48.420;14.830;2023-06-22T10:18:40;92904.78;;;29.29;41.62
81319;BME280;70784;48.420;14.830;2023-06-22T10:21:24;92918.09;;;28.99;39.80
81319;BME280;70784;48.420;14.830;2023-06-22T10:24:11;92907.41;;;31.41;38.93
81319;BME280;70784;48.420;14.830;2023-06-22T10:26:55;92902.50;;;29.92;38.50
81319;BME280;70784;48.420;14.830;2023-06-22T10:29:41;92899.31;;;31.01;37.27
81319;BME280;70784;48.420;14.830;2023-06-22T10:32:26;92902.47;;;32.15;36.33
81319;BME280;70784;48.420;14.830;2023-06-22T10:35:12;92891.81;;;31.75;36.62
81319;BME280;70784;48.420;14.830;2023-06-22T10:38:00;92900.84;;;31.02;36.90
81319;BME280;70784;48.420;14.830;2023-06-22T10:40:45;92892.78;;;31.45;36.11
81319;BME280;70784;48.420;14.830;2023-06-22T10:43:30;92895.59;;;31.78;35.06
81319;BME280;70784;48.420;14.830;2023-06-22T10:46:14;92904.53;;;32.59;35.46
81319;BME280;70784;48.420;14.830;2023-06-22T10:48:58;92905.28;;;32.27;36.34
81319;BME280;70784;48.420;14.830;2023-06-22T10:51:43;92900.38;;;33.20;33.83
81319;BME280;70784;48.420;14.830;2023-06-22T10:54:27;92904.06;;;32.12;33.93
81319;BME280;70784;48.420;14.830;2023-06-22T10:57:13;92898.44;;;33.49;34.51
81319;BME280;70784;48.420;14.830;2023-06-22T10:59:58;92891.13;;;31.51;34.56
81319;BME280;70784;48.420;14.830;2023-06-22T11:02:44;92901.38;;;32.12;35.14
81319;BME280;70784;48.420;14.830;2023-06-22T11:05:28;92895.16;;;33.29;33.00
81319;BME280;70784;48.420;14.830;2023-06-22T11:08:13;92889.69;;;32.02;33.66
81319;BME280;70784;48.420;14.830;2023-06-22T11:10:57;92886.16;;;32.74;34.72
81319;BME280;70784;48.420;14.830;2023-06-22T11:13:42;92887.72;;;33.33;32.29
81319;BME280;70784;48.420;14.830;2023-06-22T11:16:27;92879.00;;;31.99;33.29
81319;BME280;70784;48.420;14.830;2023-06-22T11:19:12;92873.63;;;32.84;31.97
81319;BME280;70784;48.420;14.830;2023-06-22T11:21:56;92880.91;;;34.24;32.43
81319;BME280;70784;48.420;14.830;2023-06-22T11:24:41;92875.31;;;34.06;32.03
81319;BME280;70784;48.420;14.830;2023-06-22T11:27:25;92874.53;;;32.61;31.39
81319;BME280;70784;48.420;14.830;2023-06-22T11:30:10;92867.56;;;33.66;30.24
81319;BME280;70784;48.420;14.830;2023-06-22T11:32:56;92862.66;;;32.10;33.99
81319;BME280;70784;48.420;14.830;2023-06-22T11:35:41;92867.97;;;32.94;31.83
81319;BME280;70784;48.420;14.830;2023-06-22T11:38:26;92869.03;;;34.21;31.41
81319;BME280;70784;48.420;14.830;2023-06-22T11:41:10;92864.94;;;34.42;33.45
81319;BME280;70784;48.420;14.830;2023-06-22T11:43:55;92858.41;;;35.12;30.05
81319;BME280;70784;48.420;14.830;2023-06-22T11:46:39;92855.03;;;34.14;31.75
81319;BME280;70784;48.420;14.830;2023-06-22T11:49:24;92864.06;;;34.07;29.74
81319;BME280;70784;48.420;14.830;2023-06-22T11:52:08;92856.44;;;33.39;32.94
81319;BME280;70784;48.420;14.830;2023-06-22T11:54:53;92854.94;;;34.90;31.20
81319;BME280;70784;48.420;14.830;2023-06-22T11:57:39;92849.41;;;34.21;30.84
81319;BME280;70784;48.420;14.830;2023-06-22T12:00:35;92847.22;;;34.79;29.99
81319;BME280;70784;48.420;14.830;2023-06-22T12:03:20;92851.06;;;35.13;30.23
81319;BME280;70784;48.420;14.830;2023-06-22T12:06:08;92851.78;;;33.94;31.57
81319;BME280;70784;48.420;14.830;2023-06-22T12:08:53;92853.53;;;34.25;30.47
81319;BME280;70784;48.420;14.830;2023-06-22T12:11:37;92845.94;;;34.58;29.76
81319;BME280;70784;48.420;14.830;2023-06-22T12:14:21;92840.03;;;34.00;32.18
81319;BME280;70784;48.420;14.830;2023-06-22T12:17:06;92848.72;;;34.68;30.06
81319;BME280;70784;48.420;14.830;2023-06-22T12:19:51;92836.00;;;35.03;29.33
81319;BME280;70784;48.420;14.830;2023-06-22T12:22:35;92835.31;;;34.04;31.44
81319;BME280;70784;48.420;14.830;2023-06-22T12:25:22;92833.56;;;33.85;30.71
81319;BME280;70784;48.420;14.830;2023-06-22T12:28:06;92833.16;;;34.84;31.14
81319;BME280;70784;48.420;14.830;2023-06-22T12:30:51;92830.50;;;33.58;31.98
81319;BME280;70784;48.420;14.830;2023-06-22T12:33:35;92827.44;;;34.10;31.89
81319;BME280;70784;48.420;14.830;2023-06-22T12:36:20;92816.25;;;36.11;29.30
81319;BME280;70784;48.420;14.830;2023-06-22T12:39:04;92818.84;;;36.82;29.62
81319;BME280;70784;48.420;14.830;2023-06-22T12:41:49;92811.78;;;34.90;31.09
81319;BME280;70784;48.420;14.830;2023-06-22T12:44:35;92813.28;;;33.55;31.95
81319;BME280;70784;48.420;14.830;2023-06-22T12:47:19;92802.81;;;34.46;32.11
81319;BME280;70784;48.420;14.830;2023-06-22T12:50:05;92797.75;;;34.48;34.21
81319;BME280;70784;48.420;14.830;2023-06-22T12:52:49;92789.69;;;34.22;32.92
81319;BME280;70784;48.420;14.830;2023-06-22T12:55:34;92793.56;;;35.47;30.57
81319;BME280;70784;48.420;14.830;2023-06-22T12:58:18;92791.91;;;35.71;28.75
81319;BME280;70784;48.420;14.830;2023-06-22T13:01:02;92791.38;;;33.28;34.06
81319;BME280;70784;48.420;14.830;2023-06-22T13:03:47;92785.97;;;34.89;30.92
81319;BME280;70784;48.420;14.830;2023-06-22T13:06:31;92790.31;;;35.08;31.67
81319;BME280;70784;48.420;14.830;2023-06-22T13:09:18;92782.91;;;34.78;31.37
81319;BME280;70784;48.420;14.830;2023-06-22T13:12:02;92790.50;;;35.14;30.82
81319;BME280;70784;48.420;14.830;2023-06-22T13:14:47;92775.44;;;35.47;30.11
81319;BME280;70784;48.420;14.830;2023-06-22T13:17:32;92782.13;;;35.43;31.12
81319;BME280;70784;48.420;14.830;2023-06-22T13:20:16;92775.66;;;36.02;30.79
81319;BME280;70784;48.420;14.830;2023-06-22T13:23:01;92771.59;;;35.35;30.18
81319;BME280;70784;48.420;14.830;2023-06-22T13:25:45;92766.19;;;35.97;29.71
81319;BME280;70784;48.420;14.830;2023-06-22T13:28:30;92758.59;;;35.21;31.32
81319;BME280;70784;48.420;14.830;2023-06-22T13:31:14;92763.09;;;33.99;34.65
81319;BME280;70784;48.420;14.830;2023-06-22T13:33:59;92760.00;;;35.04;32.59
81319;BME280;70784;48.420;14.830;2023-06-22T13:36:43;92761.22;;;37.00;28.85
81319;BME280;70784;48.420;14.830;2023-06-22T13:39:28;92761.72;;;35.42;31.05
81319;BME280;70784;48.420;14.830;2023-06-22T13:42:12;92757.19;;;36.77;29.23
81319;BME280;70784;48.420;14.830;2023-06-22T13:44:57;92760.63;;;36.96;29.40
81319;BME280;70784;48.420;14.830;2023-06-22T13:47:41;92760.47;;;36.54;31.88
81319;BME280;70784;48.420;14.830;2023-06-22T13:50:26;92767.25;;;37.31;28.34
81319;BME280;70784;48.420;14.830;2023-06-22T13:53:10;92759.88;;;37.83;27.60
81319;BME280;70784;48.420;14.830;2023-06-22T13:55:55;92761.66;;;36.53;30.20
81319;BME280;70784;48.420;14.830;2023-06-22T13:58:40;92756.41;;;36.49;29.61
81319;BME280;70784;48.420;14.830;2023-06-22T14:01:25;92755.34;;;35.88;30.84
81319;BME280;70784;48.420;14.830;2023-06-22T14:04:10;92751.66;;;36.13;31.89
81319;BME280;70784;48.420;14.830;2023-06-22T14:06:54;92752.03;;;35.84;32.18
81319;BME280;70784;48.420;14.830;2023-06-22T14:09:40;92740.53;;;35.62;31.96
81319;BME280;70784;48.420;14.830;2023-06-22T14:12:24;92741.63;;;35.43;32.08
81319;BME280;70784;48.420;14.830;2023-06-22T14:15:09;92741.59;;;36.04;32.08
81319;BME280;70784;48.420;14.830;2023-06-22T14:17:53;92737.34;;;35.23;32.29
81319;BME280;70784;48.420;14.830;2023-06-22T14:20:38;92735.50;;;35.20;33.66
81319;BME280;70784;48.420;14.830;2023-06-22T14:23:24;92731.47;;;35.47;31.35
81319;BME280;70784;48.420;14.830;2023-06-22T14:26:09;92733.41;;;36.44;30.96
81319;BME280;70784;48.420;14.830;2023-06-22T14:28:53;92733.19;;;35.31;32.57
81319;BME280;70784;48.420;14.830;2023-06-22T14:31:37;92727.97;;;35.15;31.47
81319;BME280;70784;48.420;14.830;2023-06-22T14:34:22;92725.03;;;35.22;31.48